createdAt,value
2023-10-09T00:02:20.818Z,100460.38
2023-10-09T00:07:24.555Z,100459.44
2023-10-09T00:12:26.895Z,100392.06
2023-10-09T00:17:33.469Z,100447.16
2023-10-09T00:22:39.321Z,100399.34
2023-10-09T00:27:43.460Z,100430.09
2023-10-09T00:33:11.252Z,100309.19
2023-10-09T00:38:25.456Z,100433.91
2023-10-09T00:43:31.039Z,100412.69
2023-10-09T00:48:38.975Z,100437.41
2023-10-09T00:53:40.879Z,100425.31
2023-10-09T00:58:44.346Z,100366.97
2023-10-09T01:03:46.645Z,100307.81
2023-10-09T01:09:07.048Z,100226.84
2023-10-09T01:14:08.694Z,100396.22
2023-10-09T01:19:26.250Z,100318.81
2023-10-09T01:24:29.017Z,100303.53
2023-10-09T01:29:30.917Z,100356.28
2023-10-09T01:34:39.142Z,100344.94
2023-10-09T01:39:44.004Z,100351.09
2023-10-09T01:44:48.451Z,100383.38
2023-10-09T01:49:50.754Z,100373.47
2023-10-09T01:54:54.574Z,100346.53
2023-10-09T01:59:56.279Z,100385.09
2023-10-09T02:05:12.614Z,100286.22
2023-10-09T02:10:27.613Z,100324.47
2023-10-09T02:15:46.516Z,100267.88
2023-10-09T02:21:02.471Z,100311.44
2023-10-09T02:26:06.382Z,100328.78
2023-10-09T02:31:13.189Z,100347.84
2023-10-09T02:36:15.104Z,100311.44
2023-10-09T02:41:17.171Z,100289.47
2023-10-09T02:46:20.743Z,100320.75
2023-10-09T02:51:27.307Z,100352.69
2023-10-09T02:56:38.806Z,100304.66
2023-10-09T03:01:42.198Z,100339.72
2023-10-09T03:06:52.790Z,100285.53
2023-10-09T03:12:03.621Z,100298.69
2023-10-09T03:17:06.445Z,100359.75
2023-10-09T03:22:12.361Z,100360.09
2023-10-09T03:27:15.418Z,100378.78
2023-10-09T03:32:17.278Z,100338.84
2023-10-09T03:37:35.210Z,100334.47
2023-10-09T03:42:38.162Z,100395.63
2023-10-09T03:47:44.432Z,100288.41
2023-10-09T03:52:46.267Z,100325.09
2023-10-09T03:57:49.254Z,100366.34
2023-10-09T04:02:51.871Z,100303.75
2023-10-09T04:07:58.164Z,100368.13
2023-10-09T04:13:01.643Z,100343.66
2023-10-09T04:18:05.476Z,100370.72
2023-10-09T04:23:07.474Z,100368.41
2023-10-09T04:28:11.220Z,100286.59
2023-10-09T04:33:29.928Z,100368.81
2023-10-09T04:38:35.572Z,100452.84
2023-10-09T04:43:37.176Z,100314.81
2023-10-09T04:48:39.672Z,100372.22
2023-10-09T04:53:51.272Z,100388.69
2023-10-09T04:59:04.567Z,100356.28
2023-10-09T05:04:19.673Z,100288.47
2023-10-09T05:09:23.984Z,100435.22
2023-10-09T05:14:28.491Z,100311.41
2023-10-09T05:19:30.747Z,100391.31
2023-10-09T05:24:45.031Z,100333.31
2023-10-09T05:30:00.489Z,100316.50
2023-10-09T05:35:02.557Z,100435.38
2023-10-09T05:40:18.232Z,100451.50
2023-10-09T05:45:51.908Z,100460.97
2023-10-09T05:51:13.894Z,100436.38
2023-10-09T05:56:33.506Z,100346.88
2023-10-09T06:01:54.117Z,100405.25
2023-10-09T06:07:01.859Z,100362.75
2023-10-09T06:12:26.693Z,100323.94
2023-10-09T06:17:44.448Z,100379.84
2023-10-09T06:22:58.232Z,100366.19
2023-10-09T06:28:00.236Z,100279.69
2023-10-09T06:33:21.612Z,100353.34
2023-10-09T06:38:24.436Z,100439.94
2023-10-09T06:43:26.006Z,100435.09
2023-10-09T06:48:40.448Z,100414.22
2023-10-09T06:53:55.130Z,100403.34
2023-10-09T06:59:05.087Z,100461.28
2023-10-09T07:04:26.008Z,100348.97
2023-10-09T07:10:05.690Z,100470.47
2023-10-09T07:15:07.872Z,100431.47
2023-10-09T07:20:30.412Z,100506.19
2023-10-09T07:25:56.293Z,100469.03
2023-10-09T07:31:01.978Z,100459.22
2023-10-09T07:36:09.981Z,100452.88
2023-10-09T07:41:11.796Z,100403.44
2023-10-09T07:46:31.463Z,100519.06
2023-10-09T07:51:33.260Z,100522.81
2023-10-09T07:56:54.293Z,100462.88
2023-10-09T08:02:00.419Z,100467.84
2023-10-09T08:08:03.333Z,100437.84
2023-10-09T08:12:59.342Z,100454.34
2023-10-09T08:18:11.142Z,100451.59
2023-10-09T08:23:23.392Z,100500.28
2023-10-09T08:28:43.585Z,100512.31
2023-10-09T08:38:50.150Z,100422.91
2023-10-09T08:43:54.027Z,100539.59
2023-10-09T08:48:57.580Z,100522.97
2023-10-09T08:53:59.294Z,100519.22
2023-10-09T08:59:03.063Z,100550.19
2023-10-09T09:04:05.070Z,100497.06
2023-10-09T09:09:16.266Z,100524.13
2023-10-09T09:14:23.278Z,100548.28
2023-10-09T09:19:33.632Z,100440.44
2023-10-09T09:24:35.397Z,100447.00
2023-10-09T09:29:39.981Z,100509.50
2023-10-09T09:34:58.457Z,100556.53
2023-10-09T09:40:02.568Z,100461.13
2023-10-09T09:45:06.544Z,100524.38
2023-10-09T09:50:25.754Z,100520.66
2023-10-09T09:55:35.095Z,100518.94
2023-10-09T10:00:41.856Z,100481.47
2023-10-09T10:05:47.696Z,100531.44
2023-10-09T10:10:59.455Z,100494.22
2023-10-09T10:16:10.310Z,100562.16
2023-10-09T10:21:30.425Z,100521.88
2023-10-09T10:26:34.881Z,100486.03
2023-10-09T10:32:02.091Z,100506.38
2023-10-09T10:37:07.308Z,100489.59
2023-10-09T10:42:10.390Z,100489.66
2023-10-09T10:47:23.962Z,100452.06
2023-10-09T10:52:46.361Z,100516.63
2023-10-09T10:57:58.444Z,100486.50
2023-10-09T11:06:16.522Z,100411.03
2023-10-09T11:11:20.794Z,100401.88
2023-10-09T11:16:36.063Z,100461.44
2023-10-09T11:21:42.080Z,100437.00
2023-10-09T11:26:44.566Z,100471.25
2023-10-09T11:32:18.419Z,100454.81
2023-10-09T11:37:31.196Z,100375.94
2023-10-09T11:42:48.189Z,100442.63
2023-10-09T11:48:13.191Z,100399.59
2023-10-09T11:53:34.503Z,100394.44
2023-10-09T11:58:41.262Z,100378.97
2023-10-09T12:03:44.219Z,100332.44
2023-10-09T12:08:50.126Z,100368.47
2023-10-09T12:13:57.615Z,100362.19
2023-10-09T12:19:00.448Z,100320.72
2023-10-09T12:24:02.914Z,100319.75
2023-10-09T12:29:04.988Z,100355.50
2023-10-09T12:34:06.736Z,100310.63
2023-10-09T12:39:09.449Z,100330.75
2023-10-09T12:44:20.174Z,100327.66
2023-10-09T12:49:26.412Z,100336.19
2023-10-09T12:54:28.855Z,100318.16
2023-10-09T12:59:30.515Z,100296.59
2023-10-09T13:04:33.905Z,100316.84
2023-10-09T13:09:43.976Z,100352.84
2023-10-09T13:14:46.685Z,100261.38
2023-10-09T13:19:48.384Z,100298.31
2023-10-09T13:24:51.095Z,100272.25
2023-10-09T13:29:53.683Z,100264.31
2023-10-09T13:34:56.751Z,100268.03
2023-10-09T13:39:59.013Z,100309.19
2023-10-09T13:45:05.871Z,100215.38
2023-10-09T13:50:10.828Z,100212.91
2023-10-09T13:55:18.728Z,100241.28
2023-10-09T14:00:34.049Z,100267.13
2023-10-09T14:05:37.872Z,100234.94
2023-10-09T14:10:40.062Z,100242.50
2023-10-09T14:15:44.082Z,100262.56
2023-10-09T14:20:45.773Z,100197.88
2023-10-09T14:25:50.807Z,100193.69
2023-10-09T14:31:00.380Z,100200.28
2023-10-09T14:36:03.228Z,100251.25
2023-10-09T14:41:08.564Z,100199.53
2023-10-09T14:46:14.572Z,100172.16
2023-10-09T14:51:16.509Z,100187.06
2023-10-09T14:56:19.851Z,100179.09
2023-10-09T15:05:14.939Z,100124.47
2023-10-09T15:10:16.992Z,100185.72
2023-10-09T15:15:20.076Z,100132.97
2023-10-09T15:20:22.181Z,100144.47
2023-10-09T15:25:23.863Z,100135.28
2023-10-09T15:30:27.672Z,100167.97
2023-10-09T15:35:35.074Z,100186.66
2023-10-09T15:40:40.229Z,100175.09
2023-10-09T15:45:45.636Z,100205.38
2023-10-09T15:50:49.716Z,100168.16
2023-10-09T15:55:53.383Z,100157.31
2023-10-09T16:00:55.068Z,100155.75
2023-10-09T16:05:58.809Z,100169.06
2023-10-09T16:11:00.548Z,100153.66
2023-10-09T16:16:02.603Z,100175.19
2023-10-09T16:21:05.360Z,100166.28
2023-10-09T16:26:08.434Z,100168.44
2023-10-09T16:31:15.439Z,100123.41
2023-10-09T16:36:17.250Z,100148.16
2023-10-09T16:41:18.996Z,100149.31
2023-10-09T16:46:24.290Z,100145.31
2023-10-09T16:51:26.019Z,100173.94
2023-10-09T16:56:33.550Z,100155.22
2023-10-09T17:01:35.234Z,100195.78
2023-10-09T17:06:36.958Z,100186.34
2023-10-09T17:11:41.332Z,100133.97
2023-10-09T17:16:43.077Z,100176.88
2023-10-09T17:21:44.766Z,100178.72
2023-10-09T17:26:47.327Z,100139.97
2023-10-09T17:31:49.021Z,100175.84
2023-10-09T17:36:50.837Z,100204.22
2023-10-09T17:41:54.194Z,100197.91
2023-10-09T17:46:55.997Z,100209.34
2023-10-09T17:52:01.133Z,100155.63
2023-10-09T17:57:02.958Z,100213.59
2023-10-09T18:02:05.513Z,100165.13
2023-10-09T18:07:07.200Z,100222.09
2023-10-09T18:12:10.037Z,100201.50
2023-10-09T18:17:11.805Z,100209.34
2023-10-09T18:22:14.626Z,100153.03
2023-10-09T18:27:17.872Z,100226.19
2023-10-09T18:32:20.288Z,100194.00
2023-10-09T18:37:23.467Z,100186.31
2023-10-09T18:42:25.106Z,100163.09
2023-10-09T18:47:28.515Z,100183.47
2023-10-09T18:52:30.297Z,100218.06
2023-10-09T18:57:32.011Z,100167.06
2023-10-09T19:02:33.782Z,100195.03
2023-10-09T19:07:39.178Z,100192.69
2023-10-09T19:12:42.185Z,100169.66
2023-10-09T19:17:46.343Z,100217.75
2023-10-09T19:22:48.139Z,100227.88
2023-10-09T19:27:50.123Z,100200.56
2023-10-09T19:32:52.082Z,100202.50
2023-10-09T19:37:55.016Z,100213.63
2023-10-09T19:42:56.784Z,100247.97
2023-10-09T19:47:58.713Z,100256.34
2023-10-09T19:53:02.589Z,100226.13
2023-10-09T19:58:05.545Z,100220.94
2023-10-09T20:03:07.308Z,100250.59
2023-10-09T20:08:09.089Z,100223.50
2023-10-09T20:13:11.123Z,100195.75
2023-10-09T20:18:13.046Z,100268.47
2023-10-09T20:23:17.445Z,100225.34
2023-10-09T20:28:19.543Z,100253.44
2023-10-09T20:33:23.860Z,100206.69
2023-10-09T20:38:27.188Z,100185.69
2023-10-09T20:43:28.923Z,100279.19
2023-10-09T20:48:30.565Z,100288.88
2023-10-09T20:53:32.342Z,100291.59
2023-10-09T20:58:34.094Z,100220.03
2023-10-09T21:03:35.858Z,100337.88
2023-10-09T21:08:37.679Z,100334.19
2023-10-09T21:13:40.730Z,100275.09
2023-10-09T21:18:47.104Z,100263.16
2023-10-09T21:23:49.213Z,100321.88
2023-10-09T21:28:52.284Z,100232.16
2023-10-09T21:33:54.074Z,100314.59
2023-10-09T21:38:57.460Z,100321.03
2023-10-09T21:43:59.150Z,100359.03
2023-10-09T21:49:00.973Z,100303.13
2023-10-09T21:54:04.879Z,100316.59
2023-10-09T21:59:06.849Z,100317.50
2023-10-09T22:04:09.188Z,100279.06
2023-10-09T22:09:15.808Z,100324.53
2023-10-09T22:14:19.285Z,100282.88
2023-10-09T22:19:26.399Z,100307.53
2023-10-09T22:24:30.754Z,100290.09
2023-10-09T22:29:32.413Z,100281.78
2023-10-09T22:34:34.116Z,100228.31
2023-10-09T22:39:37.691Z,100303.34
2023-10-09T22:44:44.574Z,100383.66
2023-10-09T22:49:53.977Z,100284.03
2023-10-09T22:54:56.268Z,100368.13
2023-10-09T23:00:01.605Z,100295.22
2023-10-09T23:05:06.723Z,100314.97
2023-10-09T23:10:16.542Z,100274.50
2023-10-09T23:15:34.146Z,100251.78
2023-10-09T23:20:49.919Z,100320.94
2023-10-09T23:25:54.372Z,100287.06
2023-10-09T23:30:58.472Z,100306.03
2023-10-09T23:36:05.909Z,100295.03
2023-10-09T23:41:13.461Z,100298.66
2023-10-09T23:46:19.233Z,100312.56
2023-10-09T23:51:21.444Z,100306.38
2023-10-09T23:56:42.688Z,100322.94
